Time;durP1;ratioP1;P1;durP2;ratioP2;P2;SDS_P1;SDS_P2;PMS_P1;PMS_P2;Temp;Humidity;BMP_temperature;BMP_pressure;BME280_temperature;BME280_humidity;BME280_pressure;Samples;Min_cycle;Max_cycle;Signal;HPM_P1;HPM_P2
2021/05/29 00:02:14;;;;;;;6.18;3.60;;;;;;;;;;3616909;39;20089;-64
2021/05/29 00:04:41;;;;;;;7.35;3.42;;;;;;;;;;3606878;39;20047;-64
2021/05/29 00:07:06;;;;;;;7.45;3.85;;;;;;;;;;3616287;39;20132;-64
2021/05/29 00:09:31;;;;;;;6.13;3.75;;;;;;;;;;3615630;39;20043;-64
2021/05/29 00:11:57;;;;;;;5.65;4.00;;;;;;;;;;3616240;39;20255;-64
2021/05/29 00:14:23;;;;;;;8.10;4.07;;;;;;;;;;3616104;39;20127;-64
2021/05/29 00:16:49;;;;;;;6.82;4.38;;;;;;;;;;3615942;39;20366;-64
2021/05/29 00:19:14;;;;;;;7.00;4.40;;;;;;;;;;3615749;39;20043;-64
2021/05/29 00:21:41;;;;;;;7.18;4.25;;;;;;;;;;3615720;39;20156;-64
2021/05/29 00:24:06;;;;;;;7.07;4.05;;;;;;;;;;3616232;39;20043;-64
2021/05/29 00:26:32;;;;;;;10.10;4.10;;;;;;;;;;3615586;39;20035;-64
2021/05/29 00:28:57;;;;;;;6.63;3.80;;;;;;;;;;3615841;39;20050;-64
2021/05/29 00:31:23;;;;;;;8.25;4.07;;;;;;;;;;3615903;39;20108;-64
2021/05/29 00:33:48;;;;;;;5.95;3.53;;;;;;;;;;3616159;39;20043;-63
2021/05/29 00:36:14;;;;;;;8.05;4.32;;;;;;;;;;3615276;39;20118;-63
2021/05/29 00:38:39;;;;;;;5.95;3.65;;;;;;;;;;3615980;39;20043;-63
2021/05/29 00:41:09;;;;;;;5.18;3.42;;;;;;;;;;3615938;39;20285;-63
2021/05/29 00:43:36;;;;;;;5.28;3.55;;;;;;;;;;3614743;39;20564;-63
2021/05/29 00:46:01;;;;;;;5.53;3.90;;;;;;;;;;3616277;39;20038;-64
2021/05/29 00:48:27;;;;;;;8.93;4.20;;;;;;;;;;3615870;39;20035;-64
2021/05/29 00:50:59;;;;;;;5.38;3.08;;;;;;;;;;3615948;39;20157;-64
2021/05/29 00:53:25;;;;;;;6.72;3.30;;;;;;;;;;3615346;39;20271;-64
2021/05/29 00:55:51;;;;;;;6.03;3.42;;;;;;;;;;3616827;39;20297;-64
2021/05/29 00:58:17;;;;;;;5.45;3.20;;;;;;;;;;3617725;39;20027;-64
2021/05/29 01:00:43;;;;;;;7.18;4.15;;;;;;;;;;3616616;39;20064;-64
2021/05/29 01:03:08;;;;;;;6.18;4.45;;;;;;;;;;3617750;39;20031;-64
2021/05/29 01:05:34;;;;;;;5.95;4.05;;;;;;;;;;3617047;39;20042;-64
2021/05/29 01:08:00;;;;;;;6.70;3.90;;;;;;;;;;3607684;39;20121;-64
2021/05/29 01:10:26;;;;;;;5.28;3.33;;;;;;;;;;3616511;39;20058;-64
2021/05/29 01:12:53;;;;;;;5.82;3.70;;;;;;;;;;3616970;39;20352;-64
2021/05/29 01:15:20;;;;;;;5.68;3.85;;;;;;;;;;3617679;39;20038;-64
2021/05/29 01:17:45;;;;;;;7.22;4.20;;;;;;;;;;3616462;39;20050;-64
2021/05/29 01:20:11;;;;;;;5.63;3.63;;;;;;;;;;3617576;39;20036;-64
2021/05/29 01:22:49;;;;;;;5.85;3.80;;;;;;;;;;3617487;39;20293;-64
2021/05/29 01:25:29;;;;;;;5.18;3.60;;;;;;;;;;3617183;39;20099;-64
2021/05/29 01:27:54;;;;;;;7.00;3.95;;;;;;;;;;3616224;39;20443;-64
2021/05/29 01:30:20;;;;;;;6.50;3.45;;;;;;;;;;3617302;39;20035;-64
2021/05/29 01:32:45;;;;;;;7.25;3.40;;;;;;;;;;3616794;39;20031;-64
2021/05/29 01:35:11;;;;;;;5.18;2.92;;;;;;;;;;3607597;39;20039;-64
2021/05/29 01:37:38;;;;;;;5.20;3.17;;;;;;;;;;3617124;39;20031;-64
2021/05/29 01:40:06;;;;;;;5.32;3.42;;;;;;;;;;3618944;39;20023;-64
2021/05/29 01:42:34;;;;;;;8.18;3.20;;;;;;;;;;3617833;39;20027;-64
2021/05/29 01:45:03;;;;;;;6.10;3.72;;;;;;;;;;3617036;39;20127;-64
2021/05/29 01:47:28;;;;;;;6.53;3.72;;;;;;;;;;3615988;39;20027;-64
2021/05/29 01:49:54;;;;;;;9.68;3.50;;;;;;;;;;3616567;39;20031;-64
2021/05/29 01:52:19;;;;;;;5.20;3.78;;;;;;;;;;3616825;39;20039;-64
2021/05/29 01:54:44;;;;;;;5.63;3.90;;;;;;;;;;3615518;39;20051;-64
2021/05/29 01:57:10;;;;;;;5.95;3.63;;;;;;;;;;3608205;39;20058;-64
2021/05/29 01:59:35;;;;;;;4.72;3.58;;;;;;;;;;3617628;39;20039;-63
2021/05/29 02:02:02;;;;;;;4.97;3.70;;;;;;;;;;3618708;39;20058;-63
2021/05/29 02:04:27;;;;;;;5.30;3.33;;;;;;;;;;3607166;39;20049;-63
2021/05/29 02:06:53;;;;;;;7.68;3.55;;;;;;;;;;3615850;39;20061;-64
2021/05/29 02:09:18;;;;;;;6.25;3.58;;;;;;;;;;3616947;39;20038;-64
2021/05/29 02:11:44;;;;;;;5.45;3.72;;;;;;;;;;3616292;39;20059;-64
2021/05/29 02:14:09;;;;;;;5.38;3.70;;;;;;;;;;3618178;39;20031;-64
2021/05/29 02:16:35;;;;;;;8.45;3.97;;;;;;;;;;3621403;39;20498;-64
2021/05/29 02:19:00;;;;;;;8.13;4.50;;;;;;;;;;3613841;39;20031;-64
2021/05/29 02:21:25;;;;;;;6.28;4.20;;;;;;;;;;3616873;39;20043;-64
2021/05/29 02:23:52;;;;;;;6.82;4.25;;;;;;;;;;3617225;39;20255;-63
2021/05/29 02:26:21;;;;;;;5.57;4.00;;;;;;;;;;3617932;39;20047;-64
2021/05/29 02:28:51;;;;;;;5.80;3.85;;;;;;;;;;3607188;39;20039;-65
2021/05/29 02:31:18;;;;;;;7.40;4.45;;;;;;;;;;3617779;39;20141;-64
2021/05/29 02:33:43;;;;;;;6.32;4.15;;;;;;;;;;3617661;39;20030;-64
2021/05/29 02:36:10;;;;;;;5.45;4.00;;;;;;;;;;3606868;39;20042;-64
2021/05/29 02:38:36;;;;;;;8.82;4.13;;;;;;;;;;3618934;39;20101;-64
2021/05/29 02:41:10;;;;;;;5.63;4.00;;;;;;;;;;3618104;39;20053;-64
2021/05/29 02:43:37;;;;;;;6.35;3.67;;;;;;;;;;3617981;39;20063;-64
2021/05/29 02:46:03;;;;;;;7.53;4.18;;;;;;;;;;3616974;39;20043;-64
2021/05/29 02:48:28;;;;;;;6.32;4.00;;;;;;;;;;3616899;39;20038;-65
2021/05/29 02:50:54;;;;;;;5.32;4.00;;;;;;;;;;3617082;39;20084;-64
2021/05/29 02:53:19;;;;;;;5.28;3.65;;;;;;;;;;3616205;39;20038;-64
2021/05/29 02:55:45;;;;;;;10.30;4.15;;;;;;;;;;3608331;39;20087;-64
2021/05/29 02:58:11;;;;;;;6.47;3.92;;;;;;;;;;3617602;39;20161;-64
2021/05/29 03:00:40;;;;;;;4.72;3.55;;;;;;;;;;3618020;39;20305;-64
2021/05/29 03:03:07;;;;;;;8.23;4.38;;;;;;;;;;3616500;39;20247;-65
2021/05/29 03:05:38;;;;;;;7.00;4.32;;;;;;;;;;3606934;39;20028;-64
2021/05/29 03:08:04;;;;;;;6.97;4.25;;;;;;;;;;3617220;39;20047;-64
2021/05/29 03:10:30;;;;;;;6.65;4.07;;;;;;;;;;3616284;39;20171;-64
2021/05/29 03:12:55;;;;;;;13.27;4.00;;;;;;;;;;3618254;39;20027;-64
2021/05/29 03:15:24;;;;;;;8.70;3.83;;;;;;;;;;3617968;39;20782;-64
2021/05/29 03:17:50;;;;;;;5.25;3.47;;;;;;;;;;3615933;39;20035;-64
2021/05/29 03:20:18;;;;;;;12.68;4.15;;;;;;;;;;3616544;39;20415;-64
2021/05/29 03:22:44;;;;;;;5.88;4.25;;;;;;;;;;3616349;39;20047;-64
2021/05/29 03:25:10;;;;;;;8.13;4.40;;;;;;;;;;3616459;39;20436;-65
2021/05/29 03:27:36;;;;;;;8.35;4.18;;;;;;;;;;3616448;39;20480;-64
2021/05/29 03:30:09;;;;;;;6.32;4.05;;;;;;;;;;3615432;39;20065;-64
2021/05/29 03:32:34;;;;;;;5.97;4.45;;;;;;;;;;3616294;39;20027;-64
2021/05/29 03:34:59;;;;;;;5.57;4.43;;;;;;;;;;3617171;39;20424;-64
2021/05/29 03:37:25;;;;;;;6.35;4.25;;;;;;;;;;3617946;39;20058;-64
2021/05/29 03:39:50;;;;;;;8.60;4.47;;;;;;;;;;3620252;39;20041;-64
2021/05/29 03:42:16;;;;;;;6.55;3.88;;;;;;;;;;3608602;39;20035;-64
2021/05/29 03:44:41;;;;;;;6.70;4.43;;;;;;;;;;3616221;39;20043;-64
2021/05/29 03:47:06;;;;;;;10.73;4.47;;;;;;;;;;3617027;39;20046;-64
2021/05/29 03:49:32;;;;;;;5.63;3.83;;;;;;;;;;3617161;39;20116;-64
2021/05/29 03:51:57;;;;;;;5.20;3.97;;;;;;;;;;3616633;39;20128;-64
2021/05/29 03:54:23;;;;;;;11.38;4.63;;;;;;;;;;3615900;39;20039;-65
2021/05/29 03:56:48;;;;;;;6.20;3.75;;;;;;;;;;3609498;39;20371;-65
2021/05/29 03:59:14;;;;;;;10.10;4.93;;;;;;;;;;3616683;39;20036;-65
2021/05/29 04:01:41;;;;;;;7.47;4.55;;;;;;;;;;3616209;39;20046;-65
2021/05/29 04:04:08;;;;;;;9.07;4.72;;;;;;;;;;3615203;39;20354;-65
2021/05/29 04:06:34;;;;;;;6.65;4.57;;;;;;;;;;3616003;39;20131;-65
2021/05/29 04:09:00;;;;;;;5.63;4.20;;;;;;;;;;3616350;39;20039;-65
2021/05/29 04:11:25;;;;;;;9.48;5.05;;;;;;;;;;3614886;39;20035;-65
2021/05/29 04:13:50;;;;;;;5.65;4.15;;;;;;;;;;3616551;39;20063;-64
2021/05/29 04:16:16;;;;;;;7.18;4.50;;;;;;;;;;3616634;39;20059;-65
2021/05/29 04:18:41;;;;;;;5.80;4.30;;;;;;;;;;3616347;39;20047;-65
2021/05/29 04:21:07;;;;;;;7.88;5.03;;;;;;;;;;3616456;39;20034;-65
2021/05/29 04:23:32;;;;;;;16.08;4.97;;;;;;;;;;3615700;39;20032;-64
2021/05/29 04:25:57;;;;;;;6.90;4.70;;;;;;;;;;3617599;39;20089;-64
2021/05/29 04:28:23;;;;;;;8.38;4.45;;;;;;;;;;3616107;39;20112;-64
2021/05/29 04:30:49;;;;;;;7.15;4.45;;;;;;;;;;3617957;39;20046;-64
2021/05/29 04:33:14;;;;;;;8.18;5.05;;;;;;;;;;3619283;39;20079;-65
2021/05/29 04:35:39;;;;;;;6.07;4.60;;;;;;;;;;3618218;39;20081;-65
2021/05/29 04:38:05;;;;;;;6.80;4.82;;;;;;;;;;3616485;39;20034;-64
2021/05/29 04:40:31;;;;;;;5.47;4.30;;;;;;;;;;3608769;39;20027;-65
2021/05/29 04:43:00;;;;;;;6.50;4.97;;;;;;;;;;3617643;39;20044;-65
2021/05/29 04:45:25;;;;;;;6.28;4.60;;;;;;;;;;3617333;39;20051;-64
2021/05/29 04:47:53;;;;;;;5.68;3.95;;;;;;;;;;3617301;39;20057;-64
2021/05/29 04:50:18;;;;;;;7.50;5.60;;;;;;;;;;3617636;39;20035;-64
2021/05/29 04:52:45;;;;;;;9.43;5.32;;;;;;;;;;3617785;39;20359;-64
2021/05/29 04:55:11;;;;;;;7.97;5.57;;;;;;;;;;3618188;39;20042;-64
2021/05/29 04:57:36;;;;;;;6.60;4.85;;;;;;;;;;3618422;39;20039;-64
2021/05/29 05:00:05;;;;;;;8.55;4.90;;;;;;;;;;3618137;39;20447;-65
2021/05/29 05:02:30;;;;;;;6.93;4.85;;;;;;;;;;3618515;39;20054;-64
2021/05/29 05:04:55;;;;;;;8.50;4.85;;;;;;;;;;3618660;39;20348;-64
2021/05/29 05:07:21;;;;;;;8.40;4.90;;;;;;;;;;3616814;39;20255;-64
2021/05/29 05:09:46;;;;;;;7.60;5.40;;;;;;;;;;3618280;39;20027;-64
2021/05/29 05:12:12;;;;;;;9.48;4.85;;;;;;;;;;3617273;39;20431;-64
2021/05/29 05:14:37;;;;;;;7.10;5.20;;;;;;;;;;3618258;39;20023;-64
2021/05/29 05:17:04;;;;;;;7.68;4.68;;;;;;;;;;3618052;39;20063;-64
2021/05/29 05:19:29;;;;;;;9.05;4.88;;;;;;;;;;3618927;39;20274;-64
2021/05/29 05:21:54;;;;;;;8.35;4.95;;;;;;;;;;3616935;39;20061;-64
2021/05/29 05:24:20;;;;;;;9.95;5.10;;;;;;;;;;3617754;39;20038;-64
2021/05/29 05:26:45;;;;;;;8.80;5.03;;;;;;;;;;3617068;39;20043;-64
2021/05/29 05:29:11;;;;;;;6.53;4.90;;;;;;;;;;3617370;39;20038;-64
2021/05/29 05:31:37;;;;;;;8.32;6.15;;;;;;;;;;3617048;39;20035;-64
2021/05/29 05:34:08;;;;;;;7.43;5.20;;;;;;;;;;3617666;39;20269;-64
2021/05/29 05:36:34;;;;;;;;;;;;;;;;;;3616905;39;20027;-64
2021/05/29 05:38:59;;;;;;;5.82;3.75;;;;;;;;;;3617371;39;20297;-64
2021/05/29 05:41:24;;;;;;;6.28;4.10;;;;;;;;;;3617507;39;20039;-64
2021/05/29 05:43:50;;;;;;;5.97;3.72;;;;;;;;;;3618008;39;20043;-64
2021/05/29 05:46:16;;;;;;;4.95;3.55;;;;;;;;;;3617279;39;20074;-64
2021/05/29 05:48:43;;;;;;;5.25;3.80;;;;;;;;;;3617186;39;20101;-64
2021/05/29 05:51:08;;;;;;;6.93;3.25;;;;;;;;;;3618175;39;20038;-64
2021/05/29 05:53:34;;;;;;;6.32;3.58;;;;;;;;;;3617644;39;20035;-65
2021/05/29 05:56:03;;;;;;;6.05;3.17;;;;;;;;;;3616332;39;20596;-65
2021/05/29 05:58:30;;;;;;;4.65;3.42;;;;;;;;;;3616907;39;20027;-65
2021/05/29 06:00:57;;;;;;;4.68;3.08;;;;;;;;;;3617049;39;20034;-64
2021/05/29 06:03:22;;;;;;;5.18;2.88;;;;;;;;;;3616819;39;20042;-65
2021/05/29 06:05:48;;;;;;;5.07;3.30;;;;;;;;;;3607456;39;20395;-64
2021/05/29 06:08:15;;;;;;;5.85;3.13;;;;;;;;;;3607999;39;20457;-64
2021/05/29 06:10:40;;;;;;;4.85;3.00;;;;;;;;;;3616627;39;20478;-64
2021/05/29 06:13:11;;;;;;;4.68;2.60;;;;;;;;;;3619263;39;20040;-64
2021/05/29 06:18:52;;;;;;;4.32;2.40;;;;;;;;;;3616685;39;20547;-65
2021/05/29 06:21:18;;;;;;;5.28;2.50;;;;;;;;;;3617763;39;20023;-63
2021/05/29 06:23:43;;;;;;;4.93;2.80;;;;;;;;;;3607453;39;20035;-63
2021/05/29 06:26:09;;;;;;;8.65;4.18;;;;;;;;;;3617805;39;20046;-63
2021/05/29 06:28:35;;;;;;;5.07;3.13;;;;;;;;;;3618199;39;20027;-64
2021/05/29 06:31:00;;;;;;;7.03;2.80;;;;;;;;;;3618760;39;20035;-64
2021/05/29 06:33:25;;;;;;;5.47;2.85;;;;;;;;;;3617798;39;20067;-64
2021/05/29 06:35:51;;;;;;;5.93;3.83;;;;;;;;;;3617401;39;20027;-65
2021/05/29 06:38:16;;;;;;;4.00;2.70;;;;;;;;;;3615288;39;20083;-64
2021/05/29 06:40:42;;;;;;;6.05;2.72;;;;;;;;;;3616653;39;20390;-64
2021/05/29 06:43:07;;;;;;;4.65;2.55;;;;;;;;;;3616168;39;20259;-65
2021/05/29 06:45:33;;;;;;;3.55;2.45;;;;;;;;;;3616181;39;20127;-64
2021/05/29 06:48:01;;;;;;;4.40;2.40;;;;;;;;;;3620179;39;20035;-65
2021/05/29 06:50:27;;;;;;;4.10;2.40;;;;;;;;;;3615469;39;20035;-64
2021/05/29 06:52:55;;;;;;;7.68;2.40;;;;;;;;;;3616852;39;20031;-64
2021/05/29 07:00:37;;;;;;;4.00;1.90;;;;;;;;;;3617590;39;20035;-64
2021/05/29 07:03:02;;;;;;;5.30;2.03;;;;;;;;;;3618114;39;20030;-64
2021/05/29 07:05:28;;;;;;;4.03;2.38;;;;;;;;;;3618187;39;20031;-64
2021/05/29 07:07:53;;;;;;;4.35;1.50;;;;;;;;;;3607207;39;20059;-64
2021/05/29 07:10:19;;;;;;;3.15;1.80;;;;;;;;;;3615920;39;20294;-64
2021/05/29 07:12:44;;;;;;;5.80;2.00;;;;;;;;;;3615707;39;20044;-64
2021/05/29 07:15:10;;;;;;;3.72;1.42;;;;;;;;;;3617509;39;20028;-63
2021/05/29 07:17:40;;;;;;;8.82;1.55;;;;;;;;;;3618051;39;20035;-63
2021/05/29 07:20:07;;;;;;;2.83;1.45;;;;;;;;;;3617960;39;20092;-64
2021/05/29 07:22:34;;;;;;;3.05;1.65;;;;;;;;;;3620321;39;20039;-64
2021/05/29 07:24:59;;;;;;;4.25;1.83;;;;;;;;;;3615384;39;20070;-65
2021/05/29 07:27:25;;;;;;;4.78;2.33;;;;;;;;;;3616750;39;20397;-64
2021/05/29 07:29:50;;;;;;;3.38;1.90;;;;;;;;;;3617958;39;20027;-65
2021/05/29 07:32:15;;;;;;;4.13;1.75;;;;;;;;;;3609352;39;20051;-65
2021/05/29 07:34:41;;;;;;;2.25;1.20;;;;;;;;;;3616387;39;20031;-65
2021/05/29 07:37:08;;;;;;;7.60;1.38;;;;;;;;;;3616650;39;20069;-64
2021/05/29 07:39:34;;;;;;;5.00;1.50;;;;;;;;;;3616429;39;20039;-64
2021/05/29 07:42:00;;;;;;;3.53;1.50;;;;;;;;;;3618274;39;20039;-64
2021/05/29 07:44:25;;;;;;;6.75;1.33;;;;;;;;;;3618736;39;20133;-64
2021/05/29 07:46:50;;;;;;;2.50;1.00;;;;;;;;;;3618282;39;20023;-64
2021/05/29 07:49:16;;;;;;;2.80;1.20;;;;;;;;;;3616904;39;20137;-64
2021/05/29 07:51:41;;;;;;;2.42;1.20;;;;;;;;;;3617936;39;20069;-64
2021/05/29 07:54:09;;;;;;;2.78;1.27;;;;;;;;;;3617263;39;20134;-64
2021/05/29 07:56:35;;;;;;;3.30;1.30;;;;;;;;;;3616808;39;20117;-64
2021/05/29 07:59:06;;;;;;;2.75;1.05;;;;;;;;;;3616397;39;20074;-64
2021/05/29 08:01:32;;;;;;;3.15;1.15;;;;;;;;;;3617504;39;20027;-63
2021/05/29 08:03:57;;;;;;;2.55;1.40;;;;;;;;;;3618099;39;20080;-64
2021/05/29 08:06:25;;;;;;;4.30;1.30;;;;;;;;;;3618589;39;20047;-63
2021/05/29 08:08:50;;;;;;;2.88;1.30;;;;;;;;;;3618919;39;20039;-63
2021/05/29 08:11:23;;;;;;;2.92;1.20;;;;;;;;;;3618945;39;20027;-64
2021/05/29 08:13:50;;;;;;;9.48;1.10;;;;;;;;;;3618550;39;20083;-63
2021/05/29 08:16:18;;;;;;;2.45;1.23;;;;;;;;;;3618721;39;20295;-63
2021/05/29 08:18:43;;;;;;;2.60;1.20;;;;;;;;;;3618561;39;20054;-63
2021/05/29 08:21:09;;;;;;;3.83;1.30;;;;;;;;;;3619139;39;20046;-63
2021/05/29 08:23:35;;;;;;;3.65;1.05;;;;;;;;;;3619207;39;20036;-63
2021/05/29 08:26:00;;;;;;;3.45;1.48;;;;;;;;;;3618526;39;20032;-63
2021/05/29 08:28:26;;;;;;;3.92;1.52;;;;;;;;;;3617969;39;20077;-64
2021/05/29 08:30:51;;;;;;;2.33;1.00;;;;;;;;;;3618258;39;20029;-64
2021/05/29 08:33:17;;;;;;;2.88;1.10;;;;;;;;;;3618763;39;20031;-61
2021/05/29 08:35:42;;;;;;;3.67;1.52;;;;;;;;;;3606576;39;20079;-60
2021/05/29 08:38:08;;;;;;;3.80;1.15;;;;;;;;;;3615973;39;20407;-60
2021/05/29 08:40:33;;;;;;;4.00;1.17;;;;;;;;;;3617885;39;20067;-61
2021/05/29 08:43:00;;;;;;;2.75;1.40;;;;;;;;;;3617472;39;20047;-61
2021/05/29 08:45:25;;;;;;;7.03;1.48;;;;;;;;;;3617959;39;20035;-61
2021/05/29 08:47:51;;;;;;;2.63;0.98;;;;;;;;;;3618150;39;20046;-61
2021/05/29 08:50:17;;;;;;;2.90;1.33;;;;;;;;;;3616834;39;20043;-60
2021/05/29 08:52:43;;;;;;;2.83;1.20;;;;;;;;;;3618305;39;20358;-60
2021/05/29 08:55:11;;;;;;;2.38;0.93;;;;;;;;;;3617829;39;20053;-60
2021/05/29 08:57:37;;;;;;;4.03;1.25;;;;;;;;;;3618009;39;20192;-61
2021/05/29 09:00:06;;;;;;;3.20;1.30;;;;;;;;;;3616785;39;20040;-60
2021/05/29 09:02:31;;;;;;;2.78;1.42;;;;;;;;;;3617350;39;20274;-61
2021/05/29 09:05:09;;;;;;;2.33;1.15;;;;;;;;;;3617855;39;20043;-62
2021/05/29 09:07:34;;;;;;;1.92;1.00;;;;;;;;;;3616026;39;20039;-61
2021/05/29 09:10:17;;;;;;;2.53;0.93;;;;;;;;;;3617872;39;20031;-61
2021/05/29 09:13:07;;;;;;;2.90;1.10;;;;;;;;;;3617571;39;20046;-61
2021/05/29 09:15:47;;;;;;;2.70;1.10;;;;;;;;;;3616064;39;20362;-62
2021/05/29 09:18:28;;;;;;;2.35;1.13;;;;;;;;;;3617572;39;20043;-61
2021/05/29 09:21:13;;;;;;;3.25;1.33;;;;;;;;;;3617604;39;20031;-61
2021/05/29 09:23:51;;;;;;;3.03;1.42;;;;;;;;;;3615161;39;20039;-62
2021/05/29 09:26:20;;;;;;;1.90;1.00;;;;;;;;;;3614697;39;20031;-61
2021/05/29 09:28:46;;;;;;;3.55;1.13;;;;;;;;;;3615653;39;20111;-59
2021/05/29 09:31:16;;;;;;;2.72;1.38;;;;;;;;;;3615791;39;20046;-60
2021/05/29 09:33:43;;;;;;;2.30;1.00;;;;;;;;;;3616520;39;20056;-60
2021/05/29 09:36:12;;;;;;;1.80;0.88;;;;;;;;;;3616600;39;20030;-60
2021/05/29 09:38:43;;;;;;;2.80;1.02;;;;;;;;;;3617148;39;20031;-61
2021/05/29 09:41:31;;;;;;;2.80;1.35;;;;;;;;;;3617606;39;20278;-61
2021/05/29 09:44:02;;;;;;;3.35;1.25;;;;;;;;;;3616804;39;20135;-60
2021/05/29 09:46:28;;;;;;;2.97;1.20;;;;;;;;;;3607445;39;20031;-61
2021/05/29 09:48:55;;;;;;;2.38;1.13;;;;;;;;;;3617792;39;20039;-61
2021/05/29 09:51:20;;;;;;;2.22;1.00;;;;;;;;;;3616611;39;20034;-62
2021/05/29 09:53:51;;;;;;;3.38;1.08;;;;;;;;;;3615376;39;20039;-62
2021/05/29 09:56:32;;;;;;;2.53;1.23;;;;;;;;;;3613373;39;20061;-61
2021/05/29 09:59:00;;;;;;;1.90;1.10;;;;;;;;;;3618979;39;20509;-61
2021/05/29 10:01:37;;;;;;;5.75;1.00;;;;;;;;;;3617483;39;20096;-61
2021/05/29 10:04:04;;;;;;;5.93;1.65;;;;;;;;;;3600503;39;20035;-61
2021/05/29 10:06:29;;;;;;;2.60;1.08;;;;;;;;;;3619457;39;20092;-61
2021/05/29 10:08:55;;;;;;;3.80;1.15;;;;;;;;;;3617603;39;20048;-61
2021/05/29 10:11:20;;;;;;;2.50;1.30;;;;;;;;;;3617562;39;20058;-60
2021/05/29 10:13:46;;;;;;;2.28;1.20;;;;;;;;;;3618150;39;20075;-60
2021/05/29 10:16:13;;;;;;;2.55;0.93;;;;;;;;;;3616735;39;20112;-61
2021/05/29 10:18:41;;;;;;;3.83;1.40;;;;;;;;;;3616337;39;20410;-61
2021/05/29 10:21:07;;;;;;;2.35;1.00;;;;;;;;;;3616077;39;20032;-62
2021/05/29 10:23:36;;;;;;;2.13;0.90;;;;;;;;;;3616789;39;20027;-62
2021/05/29 10:26:02;;;;;;;2.95;1.33;;;;;;;;;;3617147;39;20031;-62
2021/05/29 10:28:30;;;;;;;2.97;0.90;;;;;;;;;;3618735;39;20039;-62
2021/05/29 10:30:55;;;;;;;2.33;1.10;;;;;;;;;;3616863;39;20031;-62
2021/05/29 10:33:22;;;;;;;1.63;0.82;;;;;;;;;;3608503;39;20324;-62
2021/05/29 10:35:48;;;;;;;2.38;1.08;;;;;;;;;;3617654;39;20030;-62
2021/05/29 10:38:14;;;;;;;3.15;1.05;;;;;;;;;;3618960;39;20031;-62
2021/05/29 10:40:47;;;;;;;1.83;0.93;;;;;;;;;;3616372;39;20082;-62
2021/05/29 10:43:19;;;;;;;2.78;0.95;;;;;;;;;;3616765;39;20443;-62
2021/05/29 10:45:50;;;;;;;2.38;1.00;;;;;;;;;;3616663;39;20377;-62
2021/05/29 10:48:20;;;;;;;2.45;1.10;;;;;;;;;;3616817;39;20073;-61
2021/05/29 10:53:51;;;;;;;1.63;0.93;;;;;;;;;;3616739;39;20050;-62
2021/05/29 10:56:16;;;;;;;1.73;0.82;;;;;;;;;;3615818;39;20091;-62
2021/05/29 10:59:15;;;;;;;2.42;1.15;;;;;;;;;;3617111;39;20247;-62
2021/05/29 11:01:49;;;;;;;3.00;1.02;;;;;;;;;;3610030;39;20046;-62
2021/05/29 11:04:15;;;;;;;2.88;1.00;;;;;;;;;;3615803;39;20047;-59
2021/05/29 11:06:48;;;;;;;3.65;1.00;;;;;;;;;;3616350;39;20038;-61
2021/05/29 11:09:15;;;;;;;2.45;1.23;;;;;;;;;;3614388;39;20024;-59
2021/05/29 11:11:47;;;;;;;8.00;5.10;;;;;;;;;;3607389;39;20095;-61
2021/05/29 11:14:16;;;;;;;3.97;1.55;;;;;;;;;;3606358;39;20027;-61
2021/05/29 11:16:54;;;;;;;2.33;1.30;;;;;;;;;;3616598;39;20122;-62
2021/05/29 11:20:05;;;;;;;1.92;0.98;;;;;;;;;;3614509;39;20039;-60
2021/05/29 11:22:48;;;;;;;2.75;1.15;;;;;;;;;;3602026;39;20035;-59
2021/05/29 11:25:19;;;;;;;4.05;1.13;;;;;;;;;;3615903;39;20408;-60
2021/05/29 11:27:47;;;;;;;3.33;1.10;;;;;;;;;;3615640;39;20035;-61
2021/05/29 11:30:15;;;;;;;5.30;1.05;;;;;;;;;;3616665;39;20122;-61
2021/05/29 11:35:32;;;;;;;2.35;0.85;;;;;;;;;;3615368;39;20381;-60
2021/05/29 11:41:11;;;;;;;6.30;0.95;;;;;;;;;;3616112;39;20124;-61
2021/05/29 11:43:43;;;;;;;3.58;1.00;;;;;;;;;;3615225;39;20151;-60
2021/05/29 11:46:10;;;;;;;4.20;0.90;;;;;;;;;;3616331;39;20039;-61
2021/05/29 11:48:37;;;;;;;2.47;1.35;;;;;;;;;;3616035;39;20043;-62
2021/05/29 11:51:13;;;;;;;2.58;1.23;;;;;;;;;;3606065;39;20046;-60
2021/05/29 11:53:45;;;;;;;1.77;0.90;;;;;;;;;;3615949;39;20043;-60
2021/05/29 11:56:12;;;;;;;1.25;0.77;;;;;;;;;;3615691;39;20038;-63
2021/05/29 11:58:41;;;;;;;2.33;1.10;;;;;;;;;;3615663;39;20061;-59
2021/05/29 12:01:07;;;;;;;3.20;1.55;;;;;;;;;;3615704;39;20028;-59
2021/05/29 12:03:53;;;;;;;1.77;0.80;;;;;;;;;;3615382;39;20277;-60
2021/05/29 12:06:31;;;;;;;1.90;1.13;;;;;;;;;;3615915;39;20031;-60
2021/05/29 12:08:58;;;;;;;2.38;1.02;;;;;;;;;;3615443;39;20034;-59
2021/05/29 12:11:29;;;;;;;1.77;0.82;;;;;;;;;;3613498;39;20047;-60
2021/05/29 12:14:05;;;;;;;;;;;;;;;;;;3605637;39;20035;-61
2021/05/29 12:16:40;;;;;;;2.80;1.40;;;;;;;;;;3613027;39;19932;-60
2021/05/29 12:19:07;;;;;;;1.45;0.73;;;;;;;;;;3615047;39;20035;-59
2021/05/29 12:21:41;;;;;;;2.05;0.88;;;;;;;;;;3615018;39;20034;-60
2021/05/29 12:24:07;;;;;;;2.78;1.20;;;;;;;;;;3614789;39;20124;-61
2021/05/29 12:26:33;;;;;;;2.20;1.15;;;;;;;;;;3611584;39;20035;-60
2021/05/29 12:28:58;;;;;;;1.70;0.82;;;;;;;;;;3615508;39;20416;-60
2021/05/29 12:31:24;;;;;;;2.53;1.00;;;;;;;;;;3614250;39;20143;-60
2021/05/29 12:34:05;;;;;;;3.03;1.10;;;;;;;;;;3605706;39;20047;-60
2021/05/29 12:36:32;;;;;;;2.72;1.30;;;;;;;;;;3614994;39;20039;-60
2021/05/29 12:39:02;;;;;;;1.92;0.90;;;;;;;;;;3615528;39;20044;-61
2021/05/29 12:41:37;;;;;;;3.05;0.85;;;;;;;;;;3615120;39;20035;-60
2021/05/29 12:44:07;;;;;;;6.07;1.48;;;;;;;;;;3614830;39;20085;-60
2021/05/29 12:46:33;;;;;;;2.15;1.00;;;;;;;;;;3614750;39;20040;-61
2021/05/29 12:49:02;;;;;;;11.25;1.75;;;;;;;;;;3614427;39;20100;-61
2021/05/29 12:51:37;;;;;;;2.80;1.00;;;;;;;;;;3612897;39;20067;-59
2021/05/29 12:54:03;;;;;;;2.22;0.95;;;;;;;;;;3616684;39;20099;-61
2021/05/29 12:56:28;;;;;;;2.47;1.05;;;;;;;;;;3617122;39;20035;-61
2021/05/29 12:59:01;;;;;;;2.13;1.00;;;;;;;;;;3617520;39;20629;-61
2021/05/29 13:12:14;;;;;;;5.88;3.00;;;;;;;;;;3618006;39;20027;-61
2021/05/29 13:14:43;;;;;;;2.17;1.00;;;;;;;;;;3616287;39;20067;-61
2021/05/29 13:17:20;;;;;;;2.85;1.35;;;;;;;;;;3617464;39;20039;-61
2021/05/29 13:19:50;;;;;;;2.75;1.20;;;;;;;;;;3616590;39;20128;-61
2021/05/29 13:22:23;;;;;;;1.80;0.85;;;;;;;;;;3617557;39;20061;-60
2021/05/29 13:25:05;;;;;;;3.65;1.73;;;;;;;;;;3617661;39;20273;-60
2021/05/29 13:27:33;;;;;;;2.90;1.45;;;;;;;;;;3616170;39;20035;-60
2021/05/29 13:30:08;;;;;;;2.53;1.15;;;;;;;;;;3616401;39;20374;-59
2021/05/29 13:32:34;;;;;;;3.22;1.20;;;;;;;;;;3616170;39;20058;-60
2021/05/29 13:34:59;;;;;;;3.72;1.17;;;;;;;;;;3617379;39;20539;-60
2021/05/29 13:37:25;;;;;;;2.22;1.08;;;;;;;;;;3615855;39;20034;-60
2021/05/29 13:39:51;;;;;;;1.92;0.90;;;;;;;;;;3616690;39;20066;-61
2021/05/29 13:42:17;;;;;;;3.08;1.00;;;;;;;;;;3617401;39;20030;-60
2021/05/29 13:44:43;;;;;;;2.05;0.85;;;;;;;;;;3615678;39;20398;-60
2021/05/29 13:47:09;;;;;;;3.30;1.02;;;;;;;;;;3617473;39;20031;-60
2021/05/29 13:49:35;;;;;;;1.73;0.82;;;;;;;;;;3607414;39;20063;-60
2021/05/29 13:52:02;;;;;;;3.80;1.15;;;;;;;;;;3617810;39;20028;-60
2021/05/29 13:54:28;;;;;;;1.92;0.80;;;;;;;;;;3616919;39;20039;-60
2021/05/29 13:56:53;;;;;;;1.50;0.75;;;;;;;;;;3617216;39;20136;-60
2021/05/29 13:59:19;;;;;;;1.67;1.00;;;;;;;;;;3617598;39;20042;-60
2021/05/29 14:01:45;;;;;;;2.38;1.20;;;;;;;;;;3616718;39;20035;-61
2021/05/29 14:04:12;;;;;;;2.58;1.13;;;;;;;;;;3616113;39;20035;-60
2021/05/29 14:06:41;;;;;;;2.45;1.00;;;;;;;;;;3617150;39;20038;-60
2021/05/29 14:09:08;;;;;;;2.20;0.90;;;;;;;;;;3616735;39;20036;-60
2021/05/29 14:11:43;;;;;;;3.13;1.50;;;;;;;;;;3607828;39;20362;-60
2021/05/29 14:14:10;;;;;;;2.63;1.00;;;;;;;;;;3616635;39;20061;-60
2021/05/29 14:16:36;;;;;;;3.03;1.50;;;;;;;;;;3617069;39;20072;-59
2021/05/29 14:19:02;;;;;;;2.42;1.15;;;;;;;;;;3617219;39;20050;-60
2021/05/29 14:21:28;;;;;;;1.85;0.80;;;;;;;;;;3616066;39;20475;-59
2021/05/29 14:23:54;;;;;;;1.70;0.80;;;;;;;;;;3617473;39;20031;-60
2021/05/29 14:26:22;;;;;;;6.25;1.10;;;;;;;;;;3617368;39;20043;-59
2021/05/29 14:28:48;;;;;;;2.25;1.10;;;;;;;;;;3616608;39;20100;-59
2021/05/29 14:31:13;;;;;;;1.65;0.85;;;;;;;;;;3616131;39;20135;-59
2021/05/29 14:33:40;;;;;;;2.33;1.00;;;;;;;;;;3617081;39;20031;-60
2021/05/29 14:36:07;;;;;;;2.08;1.00;;;;;;;;;;3617278;39;20464;-60
2021/05/29 14:38:33;;;;;;;2.30;1.00;;;;;;;;;;3616348;39;20037;-60
2021/05/29 14:40:59;;;;;;;1.42;0.80;;;;;;;;;;3617456;39;20362;-60
2021/05/29 14:43:25;;;;;;;1.67;0.77;;;;;;;;;;3616863;39;20046;-61
2021/05/29 14:45:50;;;;;;;4.20;1.40;;;;;;;;;;3616391;39;20137;-60
2021/05/29 14:48:16;;;;;;;3.33;1.17;;;;;;;;;;3616144;39;20039;-59
2021/05/29 14:53:26;;;;;;;3.63;1.15;;;;;;;;;;3616920;39;20052;-61
2021/05/29 14:55:51;;;;;;;1.88;1.02;;;;;;;;;;3617161;39;20038;-61
2021/05/29 14:58:17;;;;;;;4.72;1.13;;;;;;;;;;3616830;39;20339;-60
2021/05/29 15:00:43;;;;;;;3.05;1.00;;;;;;;;;;3607534;39;20096;-61
2021/05/29 15:03:09;;;;;;;3.20;1.45;;;;;;;;;;3616939;39;20043;-60
2021/05/29 15:05:34;;;;;;;2.95;1.30;;;;;;;;;;3616184;39;20136;-60
2021/05/29 15:08:00;;;;;;;3.92;1.42;;;;;;;;;;3607443;39;20045;-60
2021/05/29 15:10:26;;;;;;;3.08;1.75;;;;;;;;;;3616318;39;20046;-60
2021/05/29 15:12:55;;;;;;;3.03;1.60;;;;;;;;;;3617241;39;20038;-60
2021/05/29 15:15:22;;;;;;;2.63;1.45;;;;;;;;;;3615331;39;20042;-60
2021/05/29 15:17:48;;;;;;;2.80;1.30;;;;;;;;;;3616331;39;20046;-61